Fotos históricas de la Ciudad de Buenos Aires

Fotos ordenas por FECHA

Ord ID Archivo Fecha Título
601 843 bor22.jpg 00/00/1925 Palacio Barolo y La Inmobiliaria
602 844 bor22b.jpg 00/00/1925 Palacio Barolo y La Inmobiliaria
603 845 bor23.jpg 00/00/1925 El Rosedal.
604 846 bor23b.jpg 00/00/1925 El Rosedal.
605 847 bor24.jpg 00/00/1925 Cabildo
606 848 bor24b.jpg 00/00/1925 Cabildo
607 849 bor25.jpg 00/00/1925 Plaza del Congreso.
608 850 bor25b.jpg 00/00/1925 Plaza del Congreso.
609 851 bor26.jpg 00/00/1925 Dársena norte.
610 852 bor26a.jpg 00/00/1925 Dársena norte.
611 853 bor27.jpg 00/00/1925 Puente Alsina.
612 854 bor27b.jpg 00/00/1925 Puente Alsina.
613 855 bor28.jpg 00/00/1925 Dique 4.
614 856 bor28b.jpg 00/00/1925 Dique 4.
615 857 bor29.jpg 00/00/1925 Congreso y Plaza del Congreso.
616 858 bor29b.jpg 00/00/1925 Congreso.
617 859 bor30.jpg 00/00/1925 Parque Colón y Casa Rosada.
618 860 bor31.jpg 00/00/1925 Correo Central
619 861 bor31a.jpg 00/00/1925 Correo Central
620 862 bor34.jpg 00/00/1925 Barrio de Belgrano
621 863 bor36.jpg 00/00/1925 Plaza Libertad.
622 864 bor36a.jpg 00/00/1925 Plaza Libertad.
623 865 bor36b.jpg 00/00/1925 Teatro Coliseo
624 866 bor37.jpg 00/00/1925 Plaza Constitución.
625 867 bor37a.jpg 00/00/1925 Plaza Constitución.
626 868 bor38.jpg 00/00/1925 Retiro
627 869 bor38a.jpg 00/00/1925 Torre de los ingleses.
628 870 bor38b.jpg 00/00/1925 Estación de Retiro.
629 871 bor39.jpg 00/00/1925 Plaza Lavalle.
630 872 bor39a.jpg 00/00/1925 Plaza Lavalle y Teatro Colón.
631 873 bor40.jpg 00/00/1925 Palacio Miró y Plaza Lavalle.
632 874 bor40a.jpg 00/00/1925 Palacio Miró.
633 875 bor40b.jpg 00/00/1925 Palacio Miró.
634 876 bor41.jpg 00/00/1925 Plaza Echeverría de Villa Urquiza.
635 877 bor41a.jpg 00/00/1925 Plaza Echeverría de Villa Urquiza.
636 878 bor42.jpg 00/00/1925 Jardín Botánico y Penitenciaría nacional.
637 879 bor42a.jpg 00/00/1925 Penitenciaría nacional.
638 880 bor43.jpg 00/00/1925 Paddock del Hipódromo.
639 881 bor43a.jpg 00/00/1925 Tribunas del hipódromo.
640 882 bor44.jpg 00/00/1925 Plaza Italia
641 883 bor44a.jpg 00/00/1925 Plaza Italia.
642 884 bor45.jpg 00/00/1925 Hipódromo Argentino.
643 885 bor46.jpg 00/00/1925 El Rosedal.
644 886 bor46a.jpg 00/00/1925 El Rosedal.
645 887 bor47.jpg 00/00/1925 Entrada del Rosedal
646 888 bor47a.jpg 00/00/1925 Entrada del Rosedal
647 889 bor48.jpg 00/00/1925 Santa Fe y Pueyrredón.
648 890 bor48a.jpg 00/00/1925 Santa Fe y Pueyrredón.
649 891 bor49.jpg 00/00/1925 Asilo municipal y cementerio de la Recoleta.
650 892 bor49a.jpg 00/00/1925 Asilo municipal y cementerio de la Recoleta.
651 893 bor49b.jpg 00/00/1925 Primera sede de la Facultad de Derecho.
652 894 bor49c.jpg 00/00/1925 Estación de bombeo
653 895 bor50.jpg 00/00/1925 Iglesia de Guadalupe
654 896 bor50b.jpg 00/00/1925 Iglesia de Guadalupe
655 897 bor51.jpg 00/00/1925 La Redonda de Belgrano.
656 898 bor51a.jpg 00/00/1925 La Redonda de Belgrano.
657 901 bor53.jpg 00/00/1925 Plaza Echeverría de Villa Urquiza.
658 902 bor53a.jpg 00/00/1925 Plaza Echeverría de Villa Urquiza.
659 903 bor54.jpg 00/00/1925 Vista amplia de Puerto Madero.
660 904 bor54a.jpg 00/00/1925 Correo Central
661 905 bor55.jpg 00/00/1925 Vista amplia del Centro de la Ciudad.
662 906 bor55a.jpg 00/00/1925 Plaza San Martín y Torre de los Ingleses.
663 907 bor58.jpg 00/00/1925 Banco de Boston.
664 908 bor58a.jpg 00/00/1925 Banco de Boston.
665 909 bor58b.jpg 00/00/1925 Catedral y Municipalidad.
666 910 bor59.jpg 00/00/1925 Santa Fe y Coronel Díaz.
667 911 bor59a.jpg 00/00/1925 Santa Fe y Coronel Díaz.
668 912 bor60.jpg 00/00/1925 Visión completa de Puerto Madero.
669 913 bor60a.jpg 00/00/1925 Dársena norte.
670 914 bor60b.jpg 00/00/1925 Visión de los cuatro diques.
671 915 bor61.jpg 00/00/1925 Dársena norte.
672 916 bor61.jpg 00/00/1925 Dársena norte.
673 917 bor61a.jpg 00/00/1925 Dársena norte.
674 918 bor62.jpg 00/00/1925 Puerto Nuevo
675 919 bor62a.jpg 00/00/1925 Puerto Nuevo
676 920 bor63.jpg 00/00/1925 Hospital Rivadavia.
677 921 bor63a.jpg 00/00/1925 Hospital Rivadavia.
678 922 bor64.jpg 00/00/1925 Zoológico.
679 923 bor64a.jpg 00/00/1925 Zoológico.
680 924 bor65.jpg 00/00/1925 Puerto Nuevo
681 925 bor65a.jpg 00/00/1925 Puerto Nuevo
682 926 bor66.jpg 00/00/1925 Plaza Echeverría de Villa Urquiza.
683 927 bor66a.jpg 00/00/1925 Plaza Echeverría de Villa Urquiza.
684 932 bor68a.jpg 00/00/1925 Palermo chico.
685 999 baacw116.jpg 00/00/1925 Estatua de Mazzini
686 1006 baacw123.jpg 00/00/1925 Convento de Santo Domingo
687 1007 baacw124.jpg 00/00/1925 Las cinco esquinas y la Ciudad al SE.
688 1008 baacw125.jpg 00/00/1925 Iglesia del Socorro y sus barrancas cercanas.
689 407 baa022.jpg 00/00/1926 El almacén y el Plaza Hotel
690 679 baayh32a.jpg 00/00/1926 Corrientes y Reconquista
691 735 baayh62a.jpg 00/00/1926 Falucho y Florida
692 737 baayh63a.jpg 00/00/1926 Reconquista y Leandro Alem
693 739 baayh64a.jpg 00/00/1926 Calle Falucho entera
694 802 zzz003.jpg 00/00/1926 Arco del Espigón Plus Ultra
695 398 baa013.jpg 00/00/1927 Ritz Hotel.
696 419 baa034.jpg 00/00/1927 Alvear Palace Hotel en construcción.
697 422 baa037.jpg 00/00/1927 Balneario Municipal
698 1034 escue02.jpg 00/00/1927 Casa Broggi
699 983 aak003.jpg 00/10/1927 Construcción de la Cervecería La Munich.
700 987 aak007.jpg 00/10/1927 Templete de la Cervecería Munich.

Cantidad total de FOTOS de la consulta = 1247

- [ 1 ] - [ 2 ] - [ 3 ] - [ 4 ] - [ 5 ] - [ 6 ] - [ 7 ] - [ 8 ] - [ 9 ] - [ 10 ] - [ 11 ] - [ 12 ] - [ 13 ] -

[ Página Anterior ] - [ Página Siguiente ]

Catálogo espacial y temporal de fotos antiguas
de la Ciudad de Buenos Aires
J. Simón Tagtachian - jst@cienciayfe.com.ar
www.cienciayfe.com.ar/buenosaires